sensor_id;sensor_type;location;lat;lon;timestamp;P1;P2;P0
65383;PMS5003;51986;52.788;41.368;2022-08-19T00:02:08;32.25;28.00;22.00
65383;PMS5003;51986;52.788;41.368;2022-08-19T00:04:35;33.25;28.00;22.00
65383;PMS5003;51986;52.788;41.368;2022-08-19T00:07:03;35.00;29.00;23.00
65383;PMS5003;51986;52.788;41.368;2022-08-19T00:09:31;34.00;28.00;23.00
65383;PMS5003;51986;52.788;41.368;2022-08-19T00:11:58;33.00;28.00;22.00
65383;PMS5003;51986;52.788;41.368;2022-08-19T00:14:25;33.00;28.00;22.00
65383;PMS5003;51986;52.788;41.368;2022-08-19T00:16:53;32.00;27.00;22.00
65383;PMS5003;51986;52.788;41.368;2022-08-19T00:19:23;33.00;28.00;22.50
65383;PMS5003;51986;52.788;41.368;2022-08-19T00:21:50;32.50;28.00;22.00
65383;PMS5003;51986;52.788;41.368;2022-08-19T00:24:18;32.00;27.50;22.00
65383;PMS5003;51986;52.788;41.368;2022-08-19T00:26:45;32.50;28.00;22.00
65383;PMS5003;51986;52.788;41.368;2022-08-19T00:29:13;33.50;28.00;22.00
65383;PMS5003;51986;52.788;41.368;2022-08-19T00:31:42;35.00;29.00;23.00
65383;PMS5003;51986;52.788;41.368;2022-08-19T00:34:11;33.50;28.50;23.00
65383;PMS5003;51986;52.788;41.368;2022-08-19T00:36:39;33.00;28.00;23.00
65383;PMS5003;51986;52.788;41.368;2022-08-19T00:39:08;33.00;28.00;22.00
65383;PMS5003;51986;52.788;41.368;2022-08-19T00:41:35;34.00;28.50;23.00
65383;PMS5003;51986;52.788;41.368;2022-08-19T00:44:05;33.00;28.00;23.00
65383;PMS5003;51986;52.788;41.368;2022-08-19T00:46:35;34.75;29.00;24.00
65383;PMS5003;51986;52.788;41.368;2022-08-19T00:49:24;33.00;28.00;23.00
65383;PMS5003;51986;52.788;41.368;2022-08-19T00:52:00;35.00;29.00;23.00
65383;PMS5003;51986;52.788;41.368;2022-08-19T00:54:45;32.00;28.00;22.00
65383;PMS5003;51986;52.788;41.368;2022-08-19T00:57:18;32.00;28.00;22.00
65383;PMS5003;51986;52.788;41.368;2022-08-19T00:59:53;33.00;28.00;22.00
65383;PMS5003;51986;52.788;41.368;2022-08-19T01:02:29;32.00;28.00;22.00
65383;PMS5003;51986;52.788;41.368;2022-08-19T01:04:57;33.00;28.00;23.00
65383;PMS5003;51986;52.788;41.368;2022-08-19T01:07:27;34.25;28.50;23.00
65383;PMS5003;51986;52.788;41.368;2022-08-19T01:10:01;34.00;28.00;23.00
65383;PMS5003;51986;52.788;41.368;2022-08-19T01:12:33;33.00;28.00;22.00
65383;PMS5003;51986;52.788;41.368;2022-08-19T01:15:00;34.75;28.50;23.00
65383;PMS5003;51986;52.788;41.368;2022-08-19T01:17:27;34.00;28.00;23.00
65383;PMS5003;51986;52.788;41.368;2022-08-19T01:19:54;33.00;28.00;22.00
65383;PMS5003;51986;52.788;41.368;2022-08-19T01:25:01;33.00;28.00;22.00
65383;PMS5003;51986;52.788;41.368;2022-08-19T01:27:39;33.00;28.00;23.00
65383;PMS5003;51986;52.788;41.368;2022-08-19T01:30:11;33.00;28.00;23.00
65383;PMS5003;51986;52.788;41.368;2022-08-19T01:32:45;32.00;27.00;22.00
65383;PMS5003;51986;52.788;41.368;2022-08-19T01:35:12;33.50;28.75;22.75
65383;PMS5003;51986;52.788;41.368;2022-08-19T01:37:54;34.00;29.00;22.75
65383;PMS5003;51986;52.788;41.368;2022-08-19T01:40:27;34.00;29.00;23.00
65383;PMS5003;51986;52.788;41.368;2022-08-19T01:42:59;33.75;28.00;23.00
65383;PMS5003;51986;52.788;41.368;2022-08-19T01:45:27;34.00;28.00;22.50
65383;PMS5003;51986;52.788;41.368;2022-08-19T01:47:56;35.00;29.00;22.50
65383;PMS5003;51986;52.788;41.368;2022-08-19T01:50:28;34.50;29.00;23.00
65383;PMS5003;51986;52.788;41.368;2022-08-19T01:52:57;34.00;28.00;23.00
65383;PMS5003;51986;52.788;41.368;2022-08-19T01:55:33;34.00;29.00;23.00
65383;PMS5003;51986;52.788;41.368;2022-08-19T01:58:06;30.00;27.00;22.00
65383;PMS5003;51986;52.788;41.368;2022-08-19T02:00:37;32.00;27.00;22.00
65383;PMS5003;51986;52.788;41.368;2022-08-19T02:03:04;33.00;28.00;22.00
65383;PMS5003;51986;52.788;41.368;2022-08-19T02:05:31;33.00;27.50;22.00
65383;PMS5003;51986;52.788;41.368;2022-08-19T02:07:58;34.00;28.25;22.00
65383;PMS5003;51986;52.788;41.368;2022-08-19T02:10:25;35.00;28.00;22.50
65383;PMS5003;51986;52.788;41.368;2022-08-19T02:12:52;34.75;30.00;24.00
65383;PMS5003;51986;52.788;41.368;2022-08-19T02:15:20;35.00;29.00;23.00
65383;PMS5003;51986;52.788;41.368;2022-08-19T02:20:24;33.75;28.00;22.00
65383;PMS5003;51986;52.788;41.368;2022-08-19T02:22:51;35.00;29.00;22.75
65383;PMS5003;51986;52.788;41.368;2022-08-19T02:25:18;32.00;28.00;22.00
65383;PMS5003;51986;52.788;41.368;2022-08-19T02:27:45;33.00;27.00;22.00
65383;PMS5003;51986;52.788;41.368;2022-08-19T02:30:13;33.50;28.25;22.25
65383;PMS5003;51986;52.788;41.368;2022-08-19T02:32:41;34.00;29.00;23.00
65383;PMS5003;51986;52.788;41.368;2022-08-19T02:35:10;33.00;28.00;22.50
65383;PMS5003;51986;52.788;41.368;2022-08-19T02:37:39;33.00;28.00;23.00
65383;PMS5003;51986;52.788;41.368;2022-08-19T02:40:07;34.00;29.00;23.00
65383;PMS5003;51986;52.788;41.368;2022-08-19T02:42:38;33.00;28.00;23.00
65383;PMS5003;51986;52.788;41.368;2022-08-19T02:45:05;34.00;28.00;23.00
65383;PMS5003;51986;52.788;41.368;2022-08-19T02:47:32;33.00;28.00;23.00
65383;PMS5003;51986;52.788;41.368;2022-08-19T02:50:00;32.25;28.00;22.00
65383;PMS5003;51986;52.788;41.368;2022-08-19T02:52:28;32.00;27.00;22.00
65383;PMS5003;51986;52.788;41.368;2022-08-19T02:54:55;34.00;28.00;23.00
65383;PMS5003;51986;52.788;41.368;2022-08-19T02:57:22;33.00;27.50;22.50
65383;PMS5003;51986;52.788;41.368;2022-08-19T02:59:49;33.00;28.00;22.00
65383;PMS5003;51986;52.788;41.368;2022-08-19T03:02:16;31.00;27.00;22.00
65383;PMS5003;51986;52.788;41.368;2022-08-19T03:04:45;34.50;29.00;23.00
65383;PMS5003;51986;52.788;41.368;2022-08-19T03:07:13;35.00;29.00;22.00
65383;PMS5003;51986;52.788;41.368;2022-08-19T03:09:41;35.00;29.00;22.50
65383;PMS5003;51986;52.788;41.368;2022-08-19T03:12:08;33.00;28.00;22.00
65383;PMS5003;51986;52.788;41.368;2022-08-19T03:14:36;33.00;28.00;22.00
65383;PMS5003;51986;52.788;41.368;2022-08-19T03:17:03;32.00;27.50;22.00
65383;PMS5003;51986;52.788;41.368;2022-08-19T03:19:30;33.50;28.00;22.50
65383;PMS5003;51986;52.788;41.368;2022-08-19T03:21:57;32.00;27.00;22.00
65383;PMS5003;51986;52.788;41.368;2022-08-19T03:24:24;33.00;28.00;23.00
65383;PMS5003;51986;52.788;41.368;2022-08-19T03:26:52;32.00;27.75;22.50
65383;PMS5003;51986;52.788;41.368;2022-08-19T03:29:21;31.00;27.00;22.00
65383;PMS5003;51986;52.788;41.368;2022-08-19T03:32:00;32.00;27.00;22.00
65383;PMS5003;51986;52.788;41.368;2022-08-19T03:34:31;30.00;25.75;21.00
65383;PMS5003;51986;52.788;41.368;2022-08-19T03:37:01;32.00;28.00;22.00
65383;PMS5003;51986;52.788;41.368;2022-08-19T03:39:31;34.25;29.25;23.50
65383;PMS5003;51986;52.788;41.368;2022-08-19T03:41:58;36.00;30.00;23.00
65383;PMS5003;51986;52.788;41.368;2022-08-19T03:44:45;36.00;30.75;24.00
65383;PMS5003;51986;52.788;41.368;2022-08-19T03:47:12;33.00;29.00;23.00
65383;PMS5003;51986;52.788;41.368;2022-08-19T03:49:39;33.00;27.00;22.00
65383;PMS5003;51986;52.788;41.368;2022-08-19T03:52:06;33.50;28.00;22.00
65383;PMS5003;51986;52.788;41.368;2022-08-19T03:54:33;34.50;29.00;23.00
65383;PMS5003;51986;52.788;41.368;2022-08-19T03:57:01;34.00;28.00;23.00
65383;PMS5003;51986;52.788;41.368;2022-08-19T03:59:30;34.00;29.00;23.50
65383;PMS5003;51986;52.788;41.368;2022-08-19T04:02:00;34.00;29.00;23.00
65383;PMS5003;51986;52.788;41.368;2022-08-19T04:04:29;35.00;30.00;24.00
65383;PMS5003;51986;52.788;41.368;2022-08-19T04:06:57;33.00;29.00;22.50
65383;PMS5003;51986;52.788;41.368;2022-08-19T04:09:24;33.00;28.00;22.50
65383;PMS5003;51986;52.788;41.368;2022-08-19T04:11:53;33.00;28.00;23.00
65383;PMS5003;51986;52.788;41.368;2022-08-19T04:14:22;34.00;29.00;23.00
65383;PMS5003;51986;52.788;41.368;2022-08-19T04:16:52;35.00;29.00;23.00
65383;PMS5003;51986;52.788;41.368;2022-08-19T04:19:19;35.00;29.00;23.00
65383;PMS5003;51986;52.788;41.368;2022-08-19T04:21:47;34.00;28.00;22.25
65383;PMS5003;51986;52.788;41.368;2022-08-19T04:24:16;33.00;28.00;22.00
65383;PMS5003;51986;52.788;41.368;2022-08-19T04:26:44;32.75;28.00;22.00
65383;PMS5003;51986;52.788;41.368;2022-08-19T04:29:13;33.00;27.00;22.00
65383;PMS5003;51986;52.788;41.368;2022-08-19T04:31:42;34.50;28.50;22.50
65383;PMS5003;51986;52.788;41.368;2022-08-19T04:34:11;35.00;28.00;22.00
65383;PMS5003;51986;52.788;41.368;2022-08-19T04:36:41;33.00;28.00;22.00
65383;PMS5003;51986;52.788;41.368;2022-08-19T04:39:12;34.00;29.00;22.00
65383;PMS5003;51986;52.788;41.368;2022-08-19T04:41:42;32.75;28.00;22.00
65383;PMS5003;51986;52.788;41.368;2022-08-19T04:44:09;33.50;28.50;23.00
65383;PMS5003;51986;52.788;41.368;2022-08-19T04:46:37;34.00;28.75;22.75
65383;PMS5003;51986;52.788;41.368;2022-08-19T04:49:20;34.00;29.00;22.50
65383;PMS5003;51986;52.788;41.368;2022-08-19T04:51:49;34.00;28.00;23.00
65383;PMS5003;51986;52.788;41.368;2022-08-19T04:54:18;34.00;29.00;22.00
65383;PMS5003;51986;52.788;41.368;2022-08-19T04:57:05;35.00;29.75;23.00
65383;PMS5003;51986;52.788;41.368;2022-08-19T04:59:34;34.00;29.00;23.00
65383;PMS5003;51986;52.788;41.368;2022-08-19T05:02:03;32.00;28.00;22.00
65383;PMS5003;51986;52.788;41.368;2022-08-19T05:04:30;33.00;28.00;22.25
65383;PMS5003;51986;52.788;41.368;2022-08-19T05:06:57;33.00;28.00;23.00
65383;PMS5003;51986;52.788;41.368;2022-08-19T05:09:27;34.00;29.00;23.00
65383;PMS5003;51986;52.788;41.368;2022-08-19T05:12:15;33.00;28.00;22.00
65383;PMS5003;51986;52.788;41.368;2022-08-19T05:14:42;33.00;28.00;22.00
65383;PMS5003;51986;52.788;41.368;2022-08-19T05:17:10;34.00;29.00;23.00
65383;PMS5003;51986;52.788;41.368;2022-08-19T05:19:54;32.25;28.25;22.25
65383;PMS5003;51986;52.788;41.368;2022-08-19T05:22:21;34.75;29.25;23.00
65383;PMS5003;51986;52.788;41.368;2022-08-19T05:24:48;37.00;31.00;24.00
65383;PMS5003;51986;52.788;41.368;2022-08-19T05:27:38;35.00;30.00;24.00
65383;PMS5003;51986;52.788;41.368;2022-08-19T05:30:05;34.00;29.00;23.00
65383;PMS5003;51986;52.788;41.368;2022-08-19T05:32:34;35.00;28.25;23.00
65383;PMS5003;51986;52.788;41.368;2022-08-19T05:35:01;33.25;29.00;23.00
65383;PMS5003;51986;52.788;41.368;2022-08-19T05:37:29;33.00;28.00;22.50
65383;PMS5003;51986;52.788;41.368;2022-08-19T05:39:56;34.00;29.00;22.00
65383;PMS5003;51986;52.788;41.368;2022-08-19T05:42:26;34.75;29.00;23.00
65383;PMS5003;51986;52.788;41.368;2022-08-19T05:44:54;34.00;29.00;22.00
65383;PMS5003;51986;52.788;41.368;2022-08-19T05:47:21;33.00;28.00;22.00
65383;PMS5003;51986;52.788;41.368;2022-08-19T05:49:48;32.00;27.50;21.00
65383;PMS5003;51986;52.788;41.368;2022-08-19T05:52:15;33.00;28.00;22.00
65383;PMS5003;51986;52.788;41.368;2022-08-19T05:54:44;33.50;28.00;22.00
65383;PMS5003;51986;52.788;41.368;2022-08-19T05:57:16;35.00;29.00;23.00
65383;PMS5003;51986;52.788;41.368;2022-08-19T05:59:43;33.50;28.00;23.00
65383;PMS5003;51986;52.788;41.368;2022-08-19T06:02:11;33.00;28.00;22.00
65383;PMS5003;51986;52.788;41.368;2022-08-19T06:04:38;33.50;28.00;22.00
65383;PMS5003;51986;52.788;41.368;2022-08-19T06:07:05;33.00;28.00;23.00
65383;PMS5003;51986;52.788;41.368;2022-08-19T06:09:38;33.00;29.00;23.00
65383;PMS5003;51986;52.788;41.368;2022-08-19T06:12:09;32.00;28.00;22.00
65383;PMS5003;51986;52.788;41.368;2022-08-19T06:14:36;35.00;30.00;24.00
65383;PMS5003;51986;52.788;41.368;2022-08-19T06:17:07;33.00;29.00;23.75
65383;PMS5003;51986;52.788;41.368;2022-08-19T06:19:34;32.00;28.00;23.00
65383;PMS5003;51986;52.788;41.368;2022-08-19T06:22:06;33.00;28.75;23.00
65383;PMS5003;51986;52.788;41.368;2022-08-19T06:24:34;34.00;28.75;23.00
65383;PMS5003;51986;52.788;41.368;2022-08-19T06:27:01;32.25;28.00;23.00
65383;PMS5003;51986;52.788;41.368;2022-08-19T06:29:37;35.00;30.00;24.00
65383;PMS5003;51986;52.788;41.368;2022-08-19T06:32:05;33.00;29.00;23.00
65383;PMS5003;51986;52.788;41.368;2022-08-19T06:34:32;33.00;28.00;23.00
65383;PMS5003;51986;52.788;41.368;2022-08-19T06:37:01;32.00;27.50;22.00
65383;PMS5003;51986;52.788;41.368;2022-08-19T06:39:29;34.25;30.00;23.50
65383;PMS5003;51986;52.788;41.368;2022-08-19T06:41:59;34.00;29.00;23.00
65383;PMS5003;51986;52.788;41.368;2022-08-19T06:44:29;35.50;30.50;24.00
65383;PMS5003;51986;52.788;41.368;2022-08-19T06:47:09;34.00;28.00;23.00
65383;PMS5003;51986;52.788;41.368;2022-08-19T06:52:50;33.75;29.00;22.75
65383;PMS5003;51986;52.788;41.368;2022-08-19T06:55:19;34.00;29.75;23.25
65383;PMS5003;51986;52.788;41.368;2022-08-19T06:57:46;35.00;30.00;23.00
65383;PMS5003;51986;52.788;41.368;2022-08-19T07:00:14;34.00;29.00;23.50
65383;PMS5003;51986;52.788;41.368;2022-08-19T07:02:41;34.00;29.00;23.00
65383;PMS5003;51986;52.788;41.368;2022-08-19T07:05:21;34.00;29.00;23.00
65383;PMS5003;51986;52.788;41.368;2022-08-19T07:07:48;33.00;28.00;23.00
65383;PMS5003;51986;52.788;41.368;2022-08-19T07:10:16;35.00;29.75;24.00
65383;PMS5003;51986;52.788;41.368;2022-08-19T07:12:51;33.50;28.50;23.00
65383;PMS5003;51986;52.788;41.368;2022-08-19T07:15:24;36.00;30.50;24.00
65383;PMS5003;51986;52.788;41.368;2022-08-19T07:17:55;35.00;30.00;23.00
65383;PMS5003;51986;52.788;41.368;2022-08-19T07:20:23;34.50;29.00;23.00
65383;PMS5003;51986;52.788;41.368;2022-08-19T07:22:55;33.50;28.00;23.00
65383;PMS5003;51986;52.788;41.368;2022-08-19T07:25:22;35.50;30.00;24.00
65383;PMS5003;51986;52.788;41.368;2022-08-19T07:27:59;34.00;29.00;23.00
65383;PMS5003;51986;52.788;41.368;2022-08-19T07:30:28;33.50;29.00;23.00
65383;PMS5003;51986;52.788;41.368;2022-08-19T07:32:56;33.00;28.00;23.00
65383;PMS5003;51986;52.788;41.368;2022-08-19T07:35:32;34.00;28.00;23.00
65383;PMS5003;51986;52.788;41.368;2022-08-19T07:38:12;34.00;29.00;23.00
65383;PMS5003;51986;52.788;41.368;2022-08-19T07:43:51;35.00;30.00;23.00
65383;PMS5003;51986;52.788;41.368;2022-08-19T07:46:28;36.00;30.50;24.00
65383;PMS5003;51986;52.788;41.368;2022-08-19T07:48:55;36.00;30.00;24.00
65383;PMS5003;51986;52.788;41.368;2022-08-19T07:51:21;35.00;29.00;23.00
65383;PMS5003;51986;52.788;41.368;2022-08-19T07:54:02;33.00;29.00;23.00
65383;PMS5003;51986;52.788;41.368;2022-08-19T07:56:29;33.00;28.00;23.00
65383;PMS5003;51986;52.788;41.368;2022-08-19T07:58:57;33.00;28.00;23.00
65383;PMS5003;51986;52.788;41.368;2022-08-19T08:01:25;35.50;30.50;24.00
65383;PMS5003;51986;52.788;41.368;2022-08-19T08:03:54;35.00;29.50;23.00
65383;PMS5003;51986;52.788;41.368;2022-08-19T08:06:25;34.50;29.00;24.00
65383;PMS5003;51986;52.788;41.368;2022-08-19T08:08:54;35.00;29.00;23.50
65383;PMS5003;51986;52.788;41.368;2022-08-19T08:14:03;35.50;30.00;23.00
65383;PMS5003;51986;52.788;41.368;2022-08-19T08:16:32;33.50;29.00;23.00
65383;PMS5003;51986;52.788;41.368;2022-08-19T08:19:05;33.00;28.25;23.00
65383;PMS5003;51986;52.788;41.368;2022-08-19T08:21:51;33.00;29.00;23.00
65383;PMS5003;51986;52.788;41.368;2022-08-19T08:24:23;34.00;29.00;23.00
65383;PMS5003;51986;52.788;41.368;2022-08-19T08:26:54;34.50;29.00;23.00
65383;PMS5003;51986;52.788;41.368;2022-08-19T08:29:23;33.50;28.50;23.00
65383;PMS5003;51986;52.788;41.368;2022-08-19T08:31:51;34.50;30.00;22.75
65383;PMS5003;51986;52.788;41.368;2022-08-19T08:34:25;35.00;30.00;23.50
65383;PMS5003;51986;52.788;41.368;2022-08-19T08:36:52;34.00;29.00;23.00
65383;PMS5003;51986;52.788;41.368;2022-08-19T08:39:28;35.75;30.25;24.00
65383;PMS5003;51986;52.788;41.368;2022-08-19T08:44:47;33.00;28.00;23.00
65383;PMS5003;51986;52.788;41.368;2022-08-19T08:47:35;33.50;29.00;23.50
65383;PMS5003;51986;52.788;41.368;2022-08-19T08:50:09;32.00;28.00;23.00
65383;PMS5003;51986;52.788;41.368;2022-08-19T08:52:43;33.50;28.00;23.00
65383;PMS5003;51986;52.788;41.368;2022-08-19T08:55:18;33.00;28.00;23.00
65383;PMS5003;51986;52.788;41.368;2022-08-19T09:00:17;33.00;28.00;22.00
65383;PMS5003;51986;52.788;41.368;2022-08-19T09:02:47;33.75;28.00;23.00
65383;PMS5003;51986;52.788;41.368;2022-08-19T09:05:17;34.00;29.00;23.00
65383;PMS5003;51986;52.788;41.368;2022-08-19T09:10:40;35.25;30.00;24.00
65383;PMS5003;51986;52.788;41.368;2022-08-19T09:15:48;35.00;29.00;24.00
65383;PMS5003;51986;52.788;41.368;2022-08-19T09:18:21;37.00;31.00;24.50
65383;PMS5003;51986;52.788;41.368;2022-08-19T09:20:48;37.00;31.50;24.00
65383;PMS5003;51986;52.788;41.368;2022-08-19T09:23:15;37.50;31.00;24.00
65383;PMS5003;51986;52.788;41.368;2022-08-19T09:25:42;35.75;30.00;24.00
65383;PMS5003;51986;52.788;41.368;2022-08-19T09:28:09;37.00;31.50;25.00
65383;PMS5003;51986;52.788;41.368;2022-08-19T09:30:48;36.00;30.00;24.00
65383;PMS5003;51986;52.788;41.368;2022-08-19T09:33:18;37.00;31.50;24.75
65383;PMS5003;51986;52.788;41.368;2022-08-19T09:35:45;36.00;30.00;23.50
65383;PMS5003;51986;52.788;41.368;2022-08-19T09:38:19;35.00;30.00;23.00
65383;PMS5003;51986;52.788;41.368;2022-08-19T09:40:50;35.00;29.00;23.25
65383;PMS5003;51986;52.788;41.368;2022-08-19T09:43:17;35.00;29.00;24.00
65383;PMS5003;51986;52.788;41.368;2022-08-19T09:45:59;37.00;30.25;24.00
65383;PMS5003;51986;52.788;41.368;2022-08-19T09:48:31;35.00;30.00;23.50
65383;PMS5003;51986;52.788;41.368;2022-08-19T09:51:04;35.00;30.00;24.00
65383;PMS5003;51986;52.788;41.368;2022-08-19T09:53:37;35.50;30.50;24.00
65383;PMS5003;51986;52.788;41.368;2022-08-19T09:56:08;34.25;29.00;23.00
65383;PMS5003;51986;52.788;41.368;2022-08-19T09:58:35;35.00;30.00;24.00
65383;PMS5003;51986;52.788;41.368;2022-08-19T10:01:03;36.75;30.50;24.00
65383;PMS5003;51986;52.788;41.368;2022-08-19T10:03:34;36.00;31.00;23.50
65383;PMS5003;51986;52.788;41.368;2022-08-19T10:06:03;34.00;29.00;23.50
65383;PMS5003;51986;52.788;41.368;2022-08-19T10:08:40;34.00;29.00;23.00
65383;PMS5003;51986;52.788;41.368;2022-08-19T10:11:15;35.00;29.00;23.00
65383;PMS5003;51986;52.788;41.368;2022-08-19T10:14:03;37.00;31.00;24.00
65383;PMS5003;51986;52.788;41.368;2022-08-19T10:16:36;37.00;30.00;24.00
65383;PMS5003;51986;52.788;41.368;2022-08-19T10:19:14;37.00;31.00;24.00
65383;PMS5003;51986;52.788;41.368;2022-08-19T10:21:52;36.00;30.00;24.00
65383;PMS5003;51986;52.788;41.368;2022-08-19T10:24:28;35.00;30.00;24.00
65383;PMS5003;51986;52.788;41.368;2022-08-19T10:26:55;36.00;30.00;24.00
65383;PMS5003;51986;52.788;41.368;2022-08-19T10:29:25;36.00;30.75;24.00
65383;PMS5003;51986;52.788;41.368;2022-08-19T10:32:03;36.50;31.00;24.00
65383;PMS5003;51986;52.788;41.368;2022-08-19T10:34:36;36.00;31.00;24.00
65383;PMS5003;51986;52.788;41.368;2022-08-19T10:37:15;36.00;31.00;24.00
65383;PMS5003;51986;52.788;41.368;2022-08-19T10:39:59;36.50;30.50;24.00
65383;PMS5003;51986;52.788;41.368;2022-08-19T10:42:25;37.00;31.00;25.00
65383;PMS5003;51986;52.788;41.368;2022-08-19T10:44:52;36.00;31.00;24.00
65383;PMS5003;51986;52.788;41.368;2022-08-19T10:47:19;36.00;30.00;24.00
65383;PMS5003;51986;52.788;41.368;2022-08-19T10:49:54;37.00;31.00;24.00
65383;PMS5003;51986;52.788;41.368;2022-08-19T10:52:21;36.50;31.00;24.00
65383;PMS5003;51986;52.788;41.368;2022-08-19T10:54:57;37.00;31.00;24.00
65383;PMS5003;51986;52.788;41.368;2022-08-19T10:57:34;37.00;31.00;24.00
65383;PMS5003;51986;52.788;41.368;2022-08-19T11:00:22;36.00;30.50;24.00
65383;PMS5003;51986;52.788;41.368;2022-08-19T11:02:52;37.00;31.00;24.00
65383;PMS5003;51986;52.788;41.368;2022-08-19T11:05:19;35.50;30.00;24.50
65383;PMS5003;51986;52.788;41.368;2022-08-19T11:07:49;36.50;30.75;24.00
65383;PMS5003;51986;52.788;41.368;2022-08-19T11:10:16;37.00;31.00;24.00
65383;PMS5003;51986;52.788;41.368;2022-08-19T11:12:47;36.50;30.50;24.00
65383;PMS5003;51986;52.788;41.368;2022-08-19T11:15:14;36.50;31.00;24.00
65383;PMS5003;51986;52.788;41.368;2022-08-19T11:17:42;39.50;33.00;26.00
65383;PMS5003;51986;52.788;41.368;2022-08-19T11:20:13;38.00;32.00;25.00
65383;PMS5003;51986;52.788;41.368;2022-08-19T11:22:41;38.50;32.25;25.50
65383;PMS5003;51986;52.788;41.368;2022-08-19T11:25:09;36.00;31.00;25.00
65383;PMS5003;51986;52.788;41.368;2022-08-19T11:27:37;36.50;31.00;25.00
65383;PMS5003;51986;52.788;41.368;2022-08-19T11:30:06;36.00;30.50;25.00
65383;PMS5003;51986;52.788;41.368;2022-08-19T11:32:38;35.00;30.00;24.00
65383;PMS5003;51986;52.788;41.368;2022-08-19T11:35:05;38.00;32.00;26.00
65383;PMS5003;51986;52.788;41.368;2022-08-19T11:37:32;37.50;32.00;25.00
65383;PMS5003;51986;52.788;41.368;2022-08-19T11:39:59;39.00;32.25;26.00
65383;PMS5003;51986;52.788;41.368;2022-08-19T11:42:27;37.00;32.00;25.00
65383;PMS5003;51986;52.788;41.368;2022-08-19T11:44:57;36.00;30.50;25.00
65383;PMS5003;51986;52.788;41.368;2022-08-19T11:47:25;39.00;33.00;26.00
65383;PMS5003;51986;52.788;41.368;2022-08-19T11:49:52;37.00;31.00;25.00
65383;PMS5003;51986;52.788;41.368;2022-08-19T11:52:22;36.75;31.00;25.00
65383;PMS5003;51986;52.788;41.368;2022-08-19T11:54:49;37.00;31.00;25.00
65383;PMS5003;51986;52.788;41.368;2022-08-19T11:57:16;37.50;31.50;25.00
65383;PMS5003;51986;52.788;41.368;2022-08-19T11:59:47;38.00;32.00;25.00
65383;PMS5003;51986;52.788;41.368;2022-08-19T12:02:20;36.25;30.00;25.00
65383;PMS5003;51986;52.788;41.368;2022-08-19T12:04:47;37.00;31.00;25.50
65383;PMS5003;51986;52.788;41.368;2022-08-19T12:07:14;36.00;30.00;25.00
65383;PMS5003;51986;52.788;41.368;2022-08-19T12:09:41;36.00;30.25;24.00
65383;PMS5003;51986;52.788;41.368;2022-08-19T12:12:09;36.50;30.50;24.50
65383;PMS5003;51986;52.788;41.368;2022-08-19T12:14:41;35.50;30.00;24.50
65383;PMS5003;51986;52.788;41.368;2022-08-19T12:17:08;38.00;32.50;25.50
65383;PMS5003;51986;52.788;41.368;2022-08-19T12:19:55;37.00;32.00;25.00
65383;PMS5003;51986;52.788;41.368;2022-08-19T12:22:22;36.00;31.00;24.00
65383;PMS5003;51986;52.788;41.368;2022-08-19T12:24:49;36.00;31.00;24.00
65383;PMS5003;51986;52.788;41.368;2022-08-19T12:27:16;36.25;31.00;24.50
65383;PMS5003;51986;52.788;41.368;2022-08-19T12:30:04;37.00;31.00;25.00
65383;PMS5003;51986;52.788;41.368;2022-08-19T12:32:38;36.00;30.50;24.00
65383;PMS5003;51986;52.788;41.368;2022-08-19T12:35:09;36.50;31.00;25.00
65383;PMS5003;51986;52.788;41.368;2022-08-19T12:37:35;36.50;31.00;24.00
65383;PMS5003;51986;52.788;41.368;2022-08-19T12:40:03;38.50;32.75;25.50
65383;PMS5003;51986;52.788;41.368;2022-08-19T12:42:30;38.00;32.00;24.75
65383;PMS5003;51986;52.788;41.368;2022-08-19T12:44:57;36.50;31.00;25.00
65383;PMS5003;51986;52.788;41.368;2022-08-19T12:47:24;36.25;31.00;25.00
65383;PMS5003;51986;52.788;41.368;2022-08-19T12:49:51;38.00;31.00;24.00
65383;PMS5003;51986;52.788;41.368;2022-08-19T12:52:22;36.50;31.00;24.00
65383;PMS5003;51986;52.788;41.368;2022-08-19T12:54:51;37.00;31.25;24.00
65383;PMS5003;51986;52.788;41.368;2022-08-19T12:57:22;38.00;31.50;25.00
65383;PMS5003;51986;52.788;41.368;2022-08-19T12:59:57;38.00;31.00;25.00
65383;PMS5003;51986;52.788;41.368;2022-08-19T13:02:25;38.00;31.00;25.00
65383;PMS5003;51986;52.788;41.368;2022-08-19T13:04:55;37.00;31.00;25.00
65383;PMS5003;51986;52.788;41.368;2022-08-19T13:07:22;36.00;31.00;25.00
65383;PMS5003;51986;52.788;41.368;2022-08-19T13:09:51;36.50;30.50;25.00
65383;PMS5003;51986;52.788;41.368;2022-08-19T13:12:24;37.00;30.50;24.50
65383;PMS5003;51986;52.788;41.368;2022-08-19T13:14:51;37.00;31.00;25.00
65383;PMS5003;51986;52.788;41.368;2022-08-19T13:17:18;36.50;31.00;24.00
65383;PMS5003;51986;52.788;41.368;2022-08-19T13:19:46;37.75;32.00;25.00
65383;PMS5003;51986;52.788;41.368;2022-08-19T13:22:13;37.00;31.00;25.00
65383;PMS5003;51986;52.788;41.368;2022-08-19T13:24:40;37.00;32.00;25.00
65383;PMS5003;51986;52.788;41.368;2022-08-19T13:27:13;36.00;31.00;25.00
65383;PMS5003;51986;52.788;41.368;2022-08-19T13:29:43;36.75;30.25;24.50
65383;PMS5003;51986;52.788;41.368;2022-08-19T13:32:12;36.50;31.00;24.50
65383;PMS5003;51986;52.788;41.368;2022-08-19T13:34:44;36.00;31.00;24.00
65383;PMS5003;51986;52.788;41.368;2022-08-19T13:37:13;37.00;31.75;25.00
65383;PMS5003;51986;52.788;41.368;2022-08-19T13:39:40;37.00;31.00;24.00
65383;PMS5003;51986;52.788;41.368;2022-08-19T13:42:07;36.50;30.75;24.00
65383;PMS5003;51986;52.788;41.368;2022-08-19T13:44:34;35.50;30.00;24.00
65383;PMS5003;51986;52.788;41.368;2022-08-19T13:47:02;36.00;30.00;24.00
65383;PMS5003;51986;52.788;41.368;2022-08-19T13:49:33;36.00;30.50;24.00
65383;PMS5003;51986;52.788;41.368;2022-08-19T13:52:04;36.50;31.00;24.00
65383;PMS5003;51986;52.788;41.368;2022-08-19T13:54:36;38.25;32.75;25.75
65383;PMS5003;51986;52.788;41.368;2022-08-19T13:57:03;36.00;31.00;25.00
65383;PMS5003;51986;52.788;41.368;2022-08-19T13:59:30;37.00;32.00;25.00
65383;PMS5003;51986;52.788;41.368;2022-08-19T14:01:58;36.50;31.00;24.50
65383;PMS5003;51986;52.788;41.368;2022-08-19T14:04:26;36.00;30.00;24.50
65383;PMS5003;51986;52.788;41.368;2022-08-19T14:06:53;35.50;30.00;24.00
65383;PMS5003;51986;52.788;41.368;2022-08-19T14:09:20;36.00;30.00;24.50
65383;PMS5003;51986;52.788;41.368;2022-08-19T14:11:47;36.00;30.00;24.00
65383;PMS5003;51986;52.788;41.368;2022-08-19T14:14:14;35.50;30.50;24.00
65383;PMS5003;51986;52.788;41.368;2022-08-19T14:16:43;36.00;30.00;24.00